sensor_id;sensor_type;location;lat;lon;timestamp;pressure;altitude;pressure_sealevel;temperature;humidity
35878;BME280;21982;49.804;24.072;2023-05-03T00:00:59;97598.75;;;14.36;58.13
35878;BME280;21982;49.804;24.072;2023-05-03T00:03:26;97527.44;;;13.86;58.23
35878;BME280;21982;49.804;24.072;2023-05-03T00:05:52;97628.09;;;14.63;58.37
35878;BME280;21982;49.804;24.072;2023-05-03T00:08:17;97631.38;;;14.65;58.36
35878;BME280;21982;49.804;24.072;2023-05-03T00:10:43;97492.41;;;13.89;58.03
35878;BME280;21982;49.804;24.072;2023-05-03T00:13:08;97562.28;;;14.30;58.37
35878;BME280;21982;49.804;24.072;2023-05-03T00:15:34;97562.28;;;14.37;58.50
35878;BME280;21982;49.804;24.072;2023-05-03T00:17:59;97622.56;;;14.71;58.02
35878;BME280;21982;49.804;24.072;2023-05-03T00:20:25;97543.81;;;14.22;58.48
35878;BME280;21982;49.804;24.072;2023-05-03T00:25:25;97624.19;;;14.72;58.67
35878;BME280;21982;49.804;24.072;2023-05-03T00:27:50;97588.34;;;14.48;58.64
35878;BME280;21982;49.804;24.072;2023-05-03T00:30:16;97584.44;;;14.44;58.35
35878;BME280;21982;49.804;24.072;2023-05-03T00:32:43;97605.53;;;14.59;58.83
35878;BME280;21982;49.804;24.072;2023-05-03T00:35:08;97597.16;;;14.42;58.79
35878;BME280;21982;49.804;24.072;2023-05-03T00:37:35;97617.03;;;14.72;58.68
35878;BME280;21982;49.804;24.072;2023-05-03T00:40:02;97564.75;;;14.38;58.58
35878;BME280;21982;49.804;24.072;2023-05-03T00:42:29;97634.66;;;14.73;58.81
35878;BME280;21982;49.804;24.072;2023-05-03T00:44:54;97568.44;;;14.31;58.63
35878;BME280;21982;49.804;24.072;2023-05-03T00:47:20;97514.94;;;13.93;58.95
35878;BME280;21982;49.804;24.072;2023-05-03T00:49:47;97597.94;;;14.36;59.31
35878;BME280;21982;49.804;24.072;2023-05-03T00:52:12;97605.94;;;14.36;59.42
35878;BME280;21982;49.804;24.072;2023-05-03T00:54:38;97637.34;;;14.54;59.30
35878;BME280;21982;49.804;24.072;2023-05-03T00:57:04;97588.50;;;14.14;59.58
35878;BME280;21982;49.804;24.072;2023-05-03T00:59:31;97637.34;;;14.47;59.73
35878;BME280;21982;49.804;24.072;2023-05-03T01:01:57;97573.75;;;14.04;59.99
35878;BME280;21982;49.804;24.072;2023-05-03T01:04:23;97639.53;;;14.37;59.77
35878;BME280;21982;49.804;24.072;2023-05-03T01:10:03;97587.66;;;13.93;59.65
35878;BME280;21982;49.804;24.072;2023-05-03T01:12:53;97593.16;;;13.92;59.88
35878;BME280;21982;49.804;24.072;2023-05-03T01:17:58;97626.56;;;14.01;60.62
35878;BME280;21982;49.804;24.072;2023-05-03T01:20:29;97637.25;;;14.07;60.80
35878;BME280;21982;49.804;24.072;2023-05-03T01:25:24;97462.06;;;12.76;61.35
35878;BME280;21982;49.804;24.072;2023-05-03T01:27:51;97585.47;;;13.43;61.64
35878;BME280;21982;49.804;24.072;2023-05-03T01:30:21;97650.69;;;13.86;61.85
35878;BME280;21982;49.804;24.072;2023-05-03T01:33:04;97532.47;;;13.00;61.29
35878;BME280;21982;49.804;24.072;2023-05-03T01:38:43;97571.38;;;13.07;61.73
35878;BME280;21982;49.804;24.072;2023-05-03T01:41:10;97406.53;;;12.05;62.20
35878;BME280;21982;49.804;24.072;2023-05-03T01:43:37;97649.41;;;13.69;62.45
35878;BME280;21982;49.804;24.072;2023-05-03T01:46:04;97642.81;;;13.58;62.33
35878;BME280;21982;49.804;24.072;2023-05-03T01:48:29;97649.19;;;13.64;62.36
35878;BME280;21982;49.804;24.072;2023-05-03T01:50:55;97658.81;;;13.65;62.80
35878;BME280;21982;49.804;24.072;2023-05-03T01:53:20;97414.31;;;12.14;62.71
35878;BME280;21982;49.804;24.072;2023-05-03T01:55:45;97598.25;;;13.19;62.82
35878;BME280;21982;49.804;24.072;2023-05-03T01:58:11;97627.81;;;13.37;62.72
35878;BME280;21982;49.804;24.072;2023-05-03T02:00:37;97634.97;;;13.37;62.91
35878;BME280;21982;49.804;24.072;2023-05-03T02:03:02;97571.69;;;12.91;63.41
35878;BME280;21982;49.804;24.072;2023-05-03T02:05:28;97591.16;;;12.98;63.08
35878;BME280;21982;49.804;24.072;2023-05-03T02:07:54;97588.50;;;12.98;63.25
35878;BME280;21982;49.804;24.072;2023-05-03T02:10:19;97663.19;;;13.38;63.91
35878;BME280;21982;49.804;24.072;2023-05-03T02:12:45;97666.44;;;13.33;63.81
35878;BME280;21982;49.804;24.072;2023-05-03T02:15:11;97669.50;;;13.30;63.80
35878;BME280;21982;49.804;24.072;2023-05-03T02:17:37;97681.53;;;13.26;64.41
35878;BME280;21982;49.804;24.072;2023-05-03T02:20:04;97663.50;;;13.22;64.41
35878;BME280;21982;49.804;24.072;2023-05-03T02:22:31;97663.84;;;13.12;64.33
35878;BME280;21982;49.804;24.072;2023-05-03T02:24:57;97682.47;;;13.12;64.72
35878;BME280;21982;49.804;24.072;2023-05-03T02:27:23;97664.75;;;12.98;64.63
35878;BME280;21982;49.804;24.072;2023-05-03T02:29:48;97668.69;;;13.02;64.79
35878;BME280;21982;49.804;24.072;2023-05-03T02:32:14;97672.09;;;12.96;65.01
35878;BME280;21982;49.804;24.072;2023-05-03T02:34:45;97675.41;;;12.98;64.83
35878;BME280;21982;49.804;24.072;2023-05-03T02:37:11;97583.81;;;12.38;65.17
35878;BME280;21982;49.804;24.072;2023-05-03T02:39:38;97613.09;;;12.51;65.74
35878;BME280;21982;49.804;24.072;2023-05-03T02:42:03;97628.53;;;12.62;65.53
35878;BME280;21982;49.804;24.072;2023-05-03T02:44:28;97568.97;;;12.22;65.74
35878;BME280;21982;49.804;24.072;2023-05-03T02:46:54;97579.66;;;12.29;65.78
35878;BME280;21982;49.804;24.072;2023-05-03T02:49:19;97673.06;;;12.82;65.78
35878;BME280;21982;49.804;24.072;2023-05-03T02:51:45;97666.41;;;12.71;66.02
35878;BME280;21982;49.804;24.072;2023-05-03T02:54:10;97613.22;;;12.36;65.99
35878;BME280;21982;49.804;24.072;2023-05-03T02:56:36;97687.72;;;12.78;66.23
35878;BME280;21982;49.804;24.072;2023-05-03T03:01:35;97465.72;;;11.35;66.51
35878;BME280;21982;49.804;24.072;2023-05-03T03:04:00;97690.19;;;12.79;66.49
35878;BME280;21982;49.804;24.072;2023-05-03T03:06:25;97691.03;;;12.80;66.67
35878;BME280;21982;49.804;24.072;2023-05-03T03:08:51;97694.69;;;12.79;66.77
35878;BME280;21982;49.804;24.072;2023-05-03T03:11:16;97628.69;;;12.33;66.89
35878;BME280;21982;49.804;24.072;2023-05-03T03:13:42;97642.63;;;12.35;66.65
35878;BME280;21982;49.804;24.072;2023-05-03T03:16:08;97711.88;;;12.83;67.36
35878;BME280;21982;49.804;24.072;2023-05-03T03:18:33;97714.78;;;12.88;66.98
35878;BME280;21982;49.804;24.072;2023-05-03T03:21:03;97628.56;;;12.41;66.77
35878;BME280;21982;49.804;24.072;2023-05-03T03:23:29;97707.69;;;12.95;67.10
35878;BME280;21982;49.804;24.072;2023-05-03T03:25:55;97663.13;;;12.69;67.08
35878;BME280;21982;49.804;24.072;2023-05-03T03:28:20;97657.44;;;12.72;67.01
35878;BME280;21982;49.804;24.072;2023-05-03T03:30:47;97676.34;;;12.90;66.95
35878;BME280;21982;49.804;24.072;2023-05-03T03:33:13;97638.19;;;12.70;67.11
35878;BME280;21982;49.804;24.072;2023-05-03T03:35:38;97584.88;;;12.44;66.60
35878;BME280;21982;49.804;24.072;2023-05-03T03:38:04;97718.78;;;13.26;66.95
35878;BME280;21982;49.804;24.072;2023-05-03T03:40:29;97689.63;;;13.12;66.59
35878;BME280;21982;49.804;24.072;2023-05-03T03:42:55;97662.59;;;13.08;66.50
35878;BME280;21982;49.804;24.072;2023-05-03T03:45:20;97704.16;;;13.44;66.39
35878;BME280;21982;49.804;24.072;2023-05-03T03:47:46;97671.06;;;13.18;66.19
35878;BME280;21982;49.804;24.072;2023-05-03T03:50:11;97665.97;;;13.23;66.46
35878;BME280;21982;49.804;24.072;2023-05-03T03:52:36;97728.00;;;13.65;66.38
35878;BME280;21982;49.804;24.072;2023-05-03T03:55:02;97699.09;;;13.55;66.38
35878;BME280;21982;49.804;24.072;2023-05-03T03:57:28;97633.63;;;13.20;65.81
35878;BME280;21982;49.804;24.072;2023-05-03T04:02:57;97622.31;;;13.11;66.03
35878;BME280;21982;49.804;24.072;2023-05-03T04:05:24;97747.56;;;13.85;65.93
35878;BME280;21982;49.804;24.072;2023-05-03T04:07:49;97716.97;;;13.68;65.62
35878;BME280;21982;49.804;24.072;2023-05-03T04:10:16;97758.22;;;13.92;65.85
35878;BME280;21982;49.804;24.072;2023-05-03T04:12:41;97674.91;;;13.44;66.08
35878;BME280;21982;49.804;24.072;2023-05-03T04:15:09;97696.28;;;13.63;65.70
35878;BME280;21982;49.804;24.072;2023-05-03T04:17:34;97717.25;;;13.80;65.38
35878;BME280;21982;49.804;24.072;2023-05-03T04:20:03;97757.94;;;14.15;65.11
35878;BME280;21982;49.804;24.072;2023-05-03T04:22:31;97755.25;;;14.15;65.61
35878;BME280;21982;49.804;24.072;2023-05-03T04:24:57;97755.69;;;14.18;65.28
35878;BME280;21982;49.804;24.072;2023-05-03T04:27:25;97753.84;;;14.19;64.97
35878;BME280;21982;49.804;24.072;2023-05-03T04:29:50;97753.25;;;14.30;64.90
35878;BME280;21982;49.804;24.072;2023-05-03T04:32:16;97696.19;;;13.98;65.00
35878;BME280;21982;49.804;24.072;2023-05-03T04:34:44;97754.34;;;14.42;65.04
35878;BME280;21982;49.804;24.072;2023-05-03T04:37:10;97751.72;;;14.49;64.45
35878;BME280;21982;49.804;24.072;2023-05-03T04:39:35;97751.50;;;14.57;64.35
35878;BME280;21982;49.804;24.072;2023-05-03T04:42:00;97649.28;;;13.90;64.31
35878;BME280;21982;49.804;24.072;2023-05-03T04:44:26;97602.94;;;13.65;64.38
35878;BME280;21982;49.804;24.072;2023-05-03T04:46:51;97740.22;;;14.61;64.16
35878;BME280;21982;49.804;24.072;2023-05-03T04:49:17;97737.16;;;14.58;64.04
35878;BME280;21982;49.804;24.072;2023-05-03T04:51:44;97686.00;;;14.21;64.11
35878;BME280;21982;49.804;24.072;2023-05-03T04:54:13;97778.63;;;14.87;63.68
35878;BME280;21982;49.804;24.072;2023-05-03T04:56:40;97693.03;;;14.35;63.67
35878;BME280;21982;49.804;24.072;2023-05-03T04:59:05;97768.16;;;14.92;63.54
35878;BME280;21982;49.804;24.072;2023-05-03T05:01:35;97682.78;;;14.39;63.54
35878;BME280;21982;49.804;24.072;2023-05-03T05:04:00;97732.06;;;14.69;63.30
35878;BME280;21982;49.804;24.072;2023-05-03T05:06:27;97769.38;;;14.96;63.16
35878;BME280;21982;49.804;24.072;2023-05-03T05:08:53;97749.09;;;14.88;63.23
35878;BME280;21982;49.804;24.072;2023-05-03T05:11:19;97766.72;;;14.96;63.44
35878;BME280;21982;49.804;24.072;2023-05-03T05:16:20;97641.16;;;14.12;63.32
35878;BME280;21982;49.804;24.072;2023-05-03T05:18:46;97734.53;;;14.78;63.38
35878;BME280;21982;49.804;24.072;2023-05-03T05:21:15;97790.75;;;15.22;62.99
35878;BME280;21982;49.804;24.072;2023-05-03T05:23:41;97788.28;;;15.27;62.74
35878;BME280;21982;49.804;24.072;2023-05-03T05:26:08;97770.81;;;15.25;62.62
35878;BME280;21982;49.804;24.072;2023-05-03T05:28:33;97701.53;;;14.85;62.12
35878;BME280;21982;49.804;24.072;2023-05-03T05:30:59;97814.34;;;15.65;62.22
35878;BME280;21982;49.804;24.072;2023-05-03T05:33:25;97814.13;;;15.73;62.12
35878;BME280;21982;49.804;24.072;2023-05-03T05:35:50;97813.50;;;15.78;61.54
35878;BME280;21982;49.804;24.072;2023-05-03T05:38:15;97702.53;;;15.17;61.21
35878;BME280;21982;49.804;24.072;2023-05-03T05:40:44;97742.69;;;15.49;60.88
35878;BME280;21982;49.804;24.072;2023-05-03T05:45:44;97811.53;;;16.24;60.01
35878;BME280;21982;49.804;24.072;2023-05-03T05:48:10;97827.44;;;16.57;59.67
35878;BME280;21982;49.804;24.072;2023-05-03T05:50:35;97821.97;;;16.84;58.75
35878;BME280;21982;49.804;24.072;2023-05-03T05:53:01;97842.69;;;17.26;57.84
35878;BME280;21982;49.804;24.072;2023-05-03T05:55:26;97845.25;;;17.64;56.77
35878;BME280;21982;49.804;24.072;2023-05-03T05:57:52;97839.66;;;17.91;55.73
35878;BME280;21982;49.804;24.072;2023-05-03T06:00:19;97682.53;;;16.98;54.80
35878;BME280;21982;49.804;24.072;2023-05-03T06:02:45;97815.41;;;18.22;54.18
35878;BME280;21982;49.804;24.072;2023-05-03T06:05:11;97872.34;;;18.91;53.17
35878;BME280;21982;49.804;24.072;2023-05-03T06:07:37;97828.22;;;18.87;52.34
35878;BME280;21982;49.804;24.072;2023-05-03T06:10:03;97870.59;;;19.26;51.76
35878;BME280;21982;49.804;24.072;2023-05-03T06:12:29;97802.31;;;18.81;51.13
35878;BME280;21982;49.804;24.072;2023-05-03T06:14:55;97866.00;;;19.15;51.07
35878;BME280;21982;49.804;24.072;2023-05-03T06:17:21;97857.34;;;19.01;50.78
35878;BME280;21982;49.804;24.072;2023-05-03T06:19:47;97869.53;;;18.86;51.19
35878;BME280;21982;49.804;24.072;2023-05-03T06:22:14;97882.19;;;18.97;50.98
35878;BME280;21982;49.804;24.072;2023-05-03T06:24:40;97822.94;;;18.80;50.38
35878;BME280;21982;49.804;24.072;2023-05-03T06:27:05;97886.97;;;19.06;50.32
35878;BME280;21982;49.804;24.072;2023-05-03T06:29:31;97811.28;;;18.56;49.84
35878;BME280;21982;49.804;24.072;2023-05-03T06:31:56;97889.78;;;18.82;49.57
35878;BME280;21982;49.804;24.072;2023-05-03T06:34:21;97897.28;;;18.61;49.57
35878;BME280;21982;49.804;24.072;2023-05-03T06:36:48;97886.97;;;18.40;49.86
35878;BME280;21982;49.804;24.072;2023-05-03T06:39:14;97840.34;;;18.04;49.79
35878;BME280;21982;49.804;24.072;2023-05-03T06:41:40;97814.06;;;17.95;49.70
35878;BME280;21982;49.804;24.072;2023-05-03T06:44:06;97828.28;;;18.14;49.60
35878;BME280;21982;49.804;24.072;2023-05-03T06:46:32;97807.13;;;17.87;49.80
35878;BME280;21982;49.804;24.072;2023-05-03T06:48:57;97860.97;;;18.04;50.01
35878;BME280;21982;49.804;24.072;2023-05-03T06:51:23;97867.59;;;18.01;50.00
35878;BME280;21982;49.804;24.072;2023-05-03T06:53:56;97860.00;;;18.17;49.84
35878;BME280;21982;49.804;24.072;2023-05-03T06:56:22;97802.53;;;17.94;49.48
35878;BME280;21982;49.804;24.072;2023-05-03T06:58:48;97888.00;;;18.57;49.18
35878;BME280;21982;49.804;24.072;2023-05-03T07:01:14;97890.59;;;18.70;49.04
35878;BME280;21982;49.804;24.072;2023-05-03T07:03:40;97880.63;;;18.89;48.76
35878;BME280;21982;49.804;24.072;2023-05-03T07:06:07;97812.53;;;18.54;48.79
35878;BME280;21982;49.804;24.072;2023-05-03T07:08:32;97810.31;;;18.99;48.24
35878;BME280;21982;49.804;24.072;2023-05-03T07:10:57;97881.94;;;19.93;47.30
35878;BME280;21982;49.804;24.072;2023-05-03T07:13:23;97865.31;;;20.20;46.58
35878;BME280;21982;49.804;24.072;2023-05-03T07:15:48;97895.22;;;20.70;46.21
35878;BME280;21982;49.804;24.072;2023-05-03T07:18:17;97850.88;;;20.61;45.72
35878;BME280;21982;49.804;24.072;2023-05-03T07:20:46;97900.41;;;20.88;45.33
35878;BME280;21982;49.804;24.072;2023-05-03T07:23:13;97840.19;;;20.37;45.47
35878;BME280;21982;49.804;24.072;2023-05-03T07:25:38;97797.16;;;20.26;45.29
35878;BME280;21982;49.804;24.072;2023-05-03T07:28:10;97829.25;;;20.84;44.90
35878;BME280;21982;49.804;24.072;2023-05-03T07:30:35;97876.09;;;21.57;44.00
35878;BME280;21982;49.804;24.072;2023-05-03T07:33:01;97845.72;;;21.61;43.54
35878;BME280;21982;49.804;24.072;2023-05-03T07:35:26;97842.94;;;21.73;43.36
35878;BME280;21982;49.804;24.072;2023-05-03T07:37:52;97919.84;;;22.09;43.21
35878;BME280;21982;49.804;24.072;2023-05-03T07:40:18;97907.16;;;21.93;43.40
35878;BME280;21982;49.804;24.072;2023-05-03T07:42:43;97902.84;;;22.09;43.30
35878;BME280;21982;49.804;24.072;2023-05-03T07:45:09;97863.94;;;22.04;43.00
35878;BME280;21982;49.804;24.072;2023-05-03T07:47:34;97886.44;;;22.32;42.74
35878;BME280;21982;49.804;24.072;2023-05-03T07:50:03;97903.13;;;22.29;42.62
35878;BME280;21982;49.804;24.072;2023-05-03T07:52:35;97926.13;;;22.15;42.84
35878;BME280;21982;49.804;24.072;2023-05-03T07:55:00;97906.22;;;21.54;43.12
35878;BME280;21982;49.804;24.072;2023-05-03T07:57:27;97869.59;;;20.96;44.25
35878;BME280;21982;49.804;24.072;2023-05-03T07:59:53;97861.41;;;20.62;44.83
35878;BME280;21982;49.804;24.072;2023-05-03T08:02:21;97830.72;;;20.23;44.86
35878;BME280;21982;49.804;24.072;2023-05-03T08:04:46;97920.16;;;20.54;45.29
35878;BME280;21982;49.804;24.072;2023-05-03T08:07:13;97913.84;;;20.48;45.44
35878;BME280;21982;49.804;24.072;2023-05-03T08:09:38;97864.97;;;20.16;45.63
35878;BME280;21982;49.804;24.072;2023-05-03T08:12:05;97925.78;;;20.52;45.84
35878;BME280;21982;49.804;24.072;2023-05-03T08:14:48;97908.00;;;20.51;45.64
35878;BME280;21982;49.804;24.072;2023-05-03T08:17:13;97923.41;;;20.67;45.43
35878;BME280;21982;49.804;24.072;2023-05-03T08:19:39;97894.06;;;20.54;45.27
35878;BME280;21982;49.804;24.072;2023-05-03T08:22:05;97922.47;;;20.73;44.74
35878;BME280;21982;49.804;24.072;2023-05-03T08:24:31;97931.56;;;20.84;44.82
35878;BME280;21982;49.804;24.072;2023-05-03T08:26:57;97891.88;;;20.80;44.36
35878;BME280;21982;49.804;24.072;2023-05-03T08:29:23;97883.53;;;20.93;43.84
35878;BME280;21982;49.804;24.072;2023-05-03T08:31:48;97931.91;;;21.28;43.49
35878;BME280;21982;49.804;24.072;2023-05-03T08:34:14;97873.22;;;21.30;43.45
35878;BME280;21982;49.804;24.072;2023-05-03T08:36:39;97916.69;;;22.34;42.58
35878;BME280;21982;49.804;24.072;2023-05-03T08:39:05;97929.84;;;23.88;41.08
35878;BME280;21982;49.804;24.072;2023-05-03T08:41:31;97932.97;;;24.96;39.57
35878;BME280;21982;49.804;24.072;2023-05-03T08:43:59;97937.53;;;25.79;37.85
35878;BME280;21982;49.804;24.072;2023-05-03T08:46:27;97870.25;;;25.81;37.36
35878;BME280;21982;49.804;24.072;2023-05-03T08:48:53;97930.19;;;26.40;37.07
35878;BME280;21982;49.804;24.072;2023-05-03T08:51:21;97903.31;;;26.13;36.71
35878;BME280;21982;49.804;24.072;2023-05-03T08:53:47;97910.66;;;25.67;37.27
35878;BME280;21982;49.804;24.072;2023-05-03T08:56:24;97863.44;;;25.27;37.42
35878;BME280;21982;49.804;24.072;2023-05-03T08:58:53;97932.34;;;25.62;37.46
35878;BME280;21982;49.804;24.072;2023-05-03T09:01:18;97931.78;;;25.55;37.86
35878;BME280;21982;49.804;24.072;2023-05-03T09:03:50;97915.00;;;26.14;36.94
35878;BME280;21982;49.804;24.072;2023-05-03T09:06:23;97886.72;;;26.40;35.94
35878;BME280;21982;49.804;24.072;2023-05-03T09:08:53;97903.09;;;25.94;35.95
35878;BME280;21982;49.804;24.072;2023-05-03T09:11:23;97917.97;;;26.22;35.74
35878;BME280;21982;49.804;24.072;2023-05-03T09:13:52;97870.47;;;26.25;35.09
35878;BME280;21982;49.804;24.072;2023-05-03T09:16:27;97918.78;;;26.28;35.56
35878;BME280;21982;49.804;24.072;2023-05-03T09:19:00;97893.59;;;25.82;35.84
35878;BME280;21982;49.804;24.072;2023-05-03T09:21:33;97917.69;;;25.53;36.38
35878;BME280;21982;49.804;24.072;2023-05-03T09:23:59;97852.09;;;24.68;36.70
35878;BME280;21982;49.804;24.072;2023-05-03T09:26:33;97869.56;;;24.92;36.16
35878;BME280;21982;49.804;24.072;2023-05-03T09:29:03;97880.44;;;25.02;35.95
35878;BME280;21982;49.804;24.072;2023-05-03T09:31:34;97920.78;;;24.99;35.97
35878;BME280;21982;49.804;24.072;2023-05-03T09:34:22;97868.81;;;24.45;36.47
35878;BME280;21982;49.804;24.072;2023-05-03T09:36:48;97911.16;;;24.24;37.23
35878;BME280;21982;49.804;24.072;2023-05-03T09:39:17;97901.69;;;23.84;37.55
35878;BME280;21982;49.804;24.072;2023-05-03T09:41:44;97836.16;;;23.13;37.87
35878;BME280;21982;49.804;24.072;2023-05-03T09:44:10;97889.69;;;22.94;38.67
35878;BME280;21982;49.804;24.072;2023-05-03T09:46:35;97929.44;;;22.77;39.10
35878;BME280;21982;49.804;24.072;2023-05-03T09:49:01;97913.16;;;22.50;39.32
35878;BME280;21982;49.804;24.072;2023-05-03T09:51:28;97885.22;;;22.23;39.55
35878;BME280;21982;49.804;24.072;2023-05-03T09:53:58;97845.25;;;21.81;39.81
35878;BME280;21982;49.804;24.072;2023-05-03T09:56:24;97923.38;;;22.10;40.33
35878;BME280;21982;49.804;24.072;2023-05-03T09:58:53;97782.69;;;20.84;40.79
35878;BME280;21982;49.804;24.072;2023-05-03T10:01:19;97793.28;;;20.73;41.29
35878;BME280;21982;49.804;24.072;2023-05-03T10:03:48;97914.88;;;21.39;41.41
35878;BME280;21982;49.804;24.072;2023-05-03T10:08:51;97905.28;;;21.03;42.17
35878;BME280;21982;49.804;24.072;2023-05-03T10:11:18;97910.25;;;20.83;42.53
35878;BME280;21982;49.804;24.072;2023-05-03T10:13:44;97907.72;;;20.76;42.93
35878;BME280;21982;49.804;24.072;2023-05-03T10:16:12;97880.50;;;20.61;42.79
35878;BME280;21982;49.804;24.072;2023-05-03T10:19:06;97880.34;;;20.67;42.74
35878;BME280;21982;49.804;24.072;2023-05-03T10:24:26;97866.50;;;20.24;43.07
35878;BME280;21982;49.804;24.072;2023-05-03T10:26:51;97901.00;;;20.38;43.18
35878;BME280;21982;49.804;24.072;2023-05-03T10:29:44;97911.50;;;20.63;42.99
35878;BME280;21982;49.804;24.072;2023-05-03T10:35:03;97877.66;;;20.67;42.92
35878;BME280;21982;49.804;24.072;2023-05-03T10:37:32;97853.81;;;20.59;42.74
35878;BME280;21982;49.804;24.072;2023-05-03T10:40:13;97865.41;;;20.60;42.60
35878;BME280;21982;49.804;24.072;2023-05-03T10:42:44;97844.28;;;20.17;42.96
35878;BME280;21982;49.804;24.072;2023-05-03T10:45:23;97928.09;;;20.72;43.08
35878;BME280;21982;49.804;24.072;2023-05-03T10:50:40;97907.50;;;21.06;42.55
35878;BME280;21982;49.804;24.072;2023-05-03T10:53:06;97917.28;;;21.24;42.57
35878;BME280;21982;49.804;24.072;2023-05-03T10:55:32;97865.78;;;20.80;42.83
35878;BME280;21982;49.804;24.072;2023-05-03T10:58:00;97922.72;;;21.12;42.55
35878;BME280;21982;49.804;24.072;2023-05-03T11:03:11;97915.00;;;21.04;42.26
35878;BME280;21982;49.804;24.072;2023-05-03T11:05:37;97907.31;;;20.84;42.62
35878;BME280;21982;49.804;24.072;2023-05-03T11:08:14;97926.16;;;20.84;42.71
35878;BME280;21982;49.804;24.072;2023-05-03T11:10:45;97924.25;;;20.68;43.02
35878;BME280;21982;49.804;24.072;2023-05-03T11:13:11;97933.50;;;20.60;43.25
35878;BME280;21982;49.804;24.072;2023-05-03T11:15:37;97907.06;;;20.34;43.10
35878;BME280;21982;49.804;24.072;2023-05-03T11:18:05;97937.16;;;20.43;43.15
35878;BME280;21982;49.804;24.072;2023-05-03T11:20:31;97898.53;;;20.14;43.28
35878;BME280;21982;49.804;24.072;2023-05-03T11:22:57;97920.97;;;20.31;43.30
35878;BME280;21982;49.804;24.072;2023-05-03T11:25:22;97939.44;;;20.62;43.08
35878;BME280;21982;49.804;24.072;2023-05-03T11:27:48;97889.44;;;20.38;42.98
35878;BME280;21982;49.804;24.072;2023-05-03T11:30:14;97895.09;;;20.65;42.53
35878;BME280;21982;49.804;24.072;2023-05-03T11:32:43;97952.88;;;21.26;41.85
35878;BME280;21982;49.804;24.072;2023-05-03T11:35:11;97949.69;;;21.29;41.38
35878;BME280;21982;49.804;24.072;2023-05-03T11:37:38;97951.94;;;21.49;41.11
35878;BME280;21982;49.804;24.072;2023-05-03T11:40:04;97953.44;;;22.01;40.43
35878;BME280;21982;49.804;24.072;2023-05-03T11:42:30;97962.19;;;22.81;39.58
35878;BME280;21982;49.804;24.072;2023-05-03T11:44:59;97954.59;;;23.75;38.51
35878;BME280;21982;49.804;24.072;2023-05-03T11:47:24;97919.69;;;24.05;37.50
35878;BME280;21982;49.804;24.072;2023-05-03T11:49:56;97941.78;;;24.29;36.95
35878;BME280;21982;49.804;24.072;2023-05-03T11:52:25;97920.44;;;24.01;36.85
35878;BME280;21982;49.804;24.072;2023-05-03T11:57:27;97926.44;;;24.03;36.93
35878;BME280;21982;49.804;24.072;2023-05-03T11:59:52;97945.84;;;23.95;37.23
35878;BME280;21982;49.804;24.072;2023-05-03T12:02:17;97955.06;;;23.67;36.94
35878;BME280;21982;49.804;24.072;2023-05-03T12:04:43;97952.97;;;23.25;37.44
35878;BME280;21982;49.804;24.072;2023-05-03T12:07:09;97947.22;;;22.95;37.89
35878;BME280;21982;49.804;24.072;2023-05-03T12:09:36;97937.19;;;22.52;38.20
35878;BME280;21982;49.804;24.072;2023-05-03T12:12:01;97948.94;;;22.07;38.84
35878;BME280;21982;49.804;24.072;2023-05-03T12:14:28;97939.03;;;21.79;39.21
35878;BME280;21982;49.804;24.072;2023-05-03T12:16:53;97847.50;;;20.94;39.59
35878;BME280;21982;49.804;24.072;2023-05-03T12:19:30;97938.59;;;21.25;40.03
35878;BME280;21982;49.804;24.072;2023-05-03T12:21:56;97929.56;;;20.91;40.49
35878;BME280;21982;49.804;24.072;2023-05-03T12:24:21;97944.47;;;20.70;40.91
35878;BME280;21982;49.804;24.072;2023-05-03T12:26:50;97904.13;;;20.47;41.08
35878;BME280;21982;49.804;24.072;2023-05-03T12:29:16;97881.47;;;20.20;40.89
35878;BME280;21982;49.804;24.072;2023-05-03T12:31:42;97919.69;;;20.33;40.97
35878;BME280;21982;49.804;24.072;2023-05-03T12:34:07;97910.09;;;20.14;41.54
35878;BME280;21982;49.804;24.072;2023-05-03T12:36:33;97941.44;;;20.20;41.72
35878;BME280;21982;49.804;24.072;2023-05-03T12:39:00;97941.19;;;20.10;42.17
35878;BME280;21982;49.804;24.072;2023-05-03T12:41:26;97916.50;;;19.78;42.39
35878;BME280;21982;49.804;24.072;2023-05-03T12:43:54;97867.91;;;19.26;42.70
35878;BME280;21982;49.804;24.072;2023-05-03T12:46:21;97934.16;;;19.74;42.91
35878;BME280;21982;49.804;24.072;2023-05-03T12:48:48;97935.09;;;19.80;43.01
35878;BME280;21982;49.804;24.072;2023-05-03T12:51:13;97931.13;;;19.82;42.91
35878;BME280;21982;49.804;24.072;2023-05-03T12:53:39;97928.19;;;19.84;42.75
35878;BME280;21982;49.804;24.072;2023-05-03T12:56:05;97892.91;;;19.68;42.78
35878;BME280;21982;49.804;24.072;2023-05-03T12:58:30;97857.91;;;19.45;42.77
35878;BME280;21982;49.804;24.072;2023-05-03T13:00:55;97884.75;;;19.75;42.72
35878;BME280;21982;49.804;24.072;2023-05-03T13:03:23;97869.56;;;19.69;42.69
35878;BME280;21982;49.804;24.072;2023-05-03T13:05:50;97862.75;;;19.78;42.60
35878;BME280;21982;49.804;24.072;2023-05-03T13:10:50;97914.19;;;20.17;42.45
35878;BME280;21982;49.804;24.072;2023-05-03T13:13:19;97907.44;;;20.02;42.48
35878;BME280;21982;49.804;24.072;2023-05-03T13:15:45;97909.63;;;19.70;43.65
35878;BME280;21982;49.804;24.072;2023-05-03T13:18:11;97905.88;;;19.41;44.90
35878;BME280;21982;49.804;24.072;2023-05-03T13:20:38;97908.66;;;19.23;45.56
35878;BME280;21982;49.804;24.072;2023-05-03T13:23:04;97892.09;;;18.96;46.35
35878;BME280;21982;49.804;24.072;2023-05-03T13:25:29;97899.56;;;18.94;47.07
35878;BME280;21982;49.804;24.072;2023-05-03T13:27:55;97850.78;;;18.67;47.02
35878;BME280;21982;49.804;24.072;2023-05-03T13:30:21;97894.56;;;18.98;47.51
35878;BME280;21982;49.804;24.072;2023-05-03T13:32:49;97852.31;;;18.75;47.95